createdAt,value
2018-05-04T00:01:08.220Z,8.17
2018-05-04T00:03:36.537Z,8.70
2018-05-04T00:06:03.929Z,9.47
2018-05-04T00:08:31.536Z,6.97
2018-05-04T00:10:58.890Z,5.07
2018-05-04T00:13:27.288Z,7.53
2018-05-04T00:15:56.699Z,3.87
2018-05-04T00:18:24.100Z,5.77
2018-05-04T00:20:51.461Z,4.80
2018-05-04T00:23:18.906Z,7.63
2018-05-04T00:25:46.328Z,6.80
2018-05-04T00:28:14.721Z,7.23
2018-05-04T00:30:42.132Z,12.50
2018-05-04T00:33:09.496Z,5.67
2018-05-04T00:35:36.900Z,5.47
2018-05-04T00:38:05.228Z,6.30
2018-05-04T00:40:32.656Z,6.80
2018-05-04T00:43:00.025Z,10.30
2018-05-04T00:45:28.028Z,5.93
2018-05-04T00:47:55.436Z,5.13
2018-05-04T00:50:26.640Z,7.83
2018-05-04T00:52:54.079Z,5.30
2018-05-04T00:55:21.446Z,10.83
2018-05-04T00:57:49.783Z,5.00
2018-05-04T01:00:18.279Z,7.23
2018-05-04T01:02:45.665Z,5.27
2018-05-04T01:05:14.047Z,7.70
2018-05-04T01:07:41.483Z,7.20
2018-05-04T01:10:08.846Z,6.07
2018-05-04T01:12:36.265Z,5.03
2018-05-04T01:15:04.668Z,5.90
2018-05-04T01:17:32.027Z,10.07
2018-05-04T01:19:59.399Z,6.00
2018-05-04T01:22:26.746Z,7.93
2018-05-04T01:24:54.204Z,11.10
2018-05-04T01:27:21.599Z,10.50
2018-05-04T01:29:48.975Z,8.70
2018-05-04T01:32:16.332Z,5.93
2018-05-04T01:34:44.750Z,6.77
2018-05-04T01:37:13.116Z,7.63
2018-05-04T01:39:41.481Z,6.00
2018-05-04T01:42:08.892Z,7.17
2018-05-04T01:44:36.287Z,9.93
2018-05-04T01:47:04.694Z,5.20
2018-05-04T01:49:33.033Z,8.37
2018-05-04T01:52:00.458Z,11.00
2018-05-04T01:54:32.311Z,5.00
2018-05-04T01:57:00.657Z,5.87
2018-05-04T01:59:28.124Z,8.83
2018-05-04T02:01:55.483Z,7.07
2018-05-04T02:04:22.877Z,6.70
2018-05-04T02:06:51.232Z,10.37
2018-05-04T02:09:18.636Z,7.83
2018-05-04T02:11:47.039Z,7.70
2018-05-04T02:14:15.527Z,8.87
2018-05-04T02:16:43.174Z,9.20
2018-05-04T02:19:10.610Z,10.53
2018-05-04T02:21:41.870Z,16.23
2018-05-04T02:24:10.260Z,6.37
2018-05-04T02:26:38.631Z,9.33
2018-05-04T02:29:07.094Z,6.60
2018-05-04T02:31:35.387Z,8.63
2018-05-04T02:34:02.793Z,9.43
2018-05-04T02:36:31.107Z,7.90
2018-05-04T02:38:59.625Z,7.20
2018-05-04T02:41:27.007Z,8.97
2018-05-04T02:43:54.427Z,10.07
2018-05-04T02:46:22.829Z,11.47
2018-05-04T02:48:50.214Z,10.70
2018-05-04T02:51:17.678Z,7.77
2018-05-04T02:53:45.184Z,8.90
2018-05-04T02:56:12.543Z,11.63
2018-05-04T02:58:40.895Z,6.43
2018-05-04T03:01:08.317Z,11.63
2018-05-04T03:03:36.693Z,7.50
2018-05-04T03:06:04.073Z,6.70
2018-05-04T03:08:31.429Z,8.77
2018-05-04T03:10:59.754Z,8.77
2018-05-04T03:13:27.111Z,7.73
2018-05-04T03:15:54.536Z,16.87
2018-05-04T03:18:21.928Z,8.63
2018-05-04T03:20:49.319Z,9.60
2018-05-04T03:23:17.655Z,8.03
2018-05-04T03:25:45.077Z,7.20
2018-05-04T03:28:12.496Z,13.83
2018-05-04T03:30:39.906Z,9.63
2018-05-04T03:33:07.324Z,10.27
2018-05-04T03:35:35.646Z,9.10
2018-05-04T03:38:03.998Z,9.13
2018-05-04T03:40:33.348Z,11.60
2018-05-04T03:43:01.659Z,9.33
2018-05-04T03:45:31.028Z,7.73
2018-05-04T03:47:58.420Z,13.00
2018-05-04T03:50:25.890Z,8.60
2018-05-04T03:52:53.262Z,12.30
2018-05-04T03:55:20.713Z,9.53
2018-05-04T03:57:54.062Z,7.80
2018-05-04T04:00:27.409Z,10.60
2018-05-04T04:03:02.880Z,10.03
2018-05-04T04:05:30.294Z,9.40
2018-05-04T04:07:57.700Z,10.00
2018-05-04T04:10:25.092Z,11.63
2018-05-04T04:12:54.446Z,12.13
2018-05-04T04:15:21.803Z,12.50
2018-05-04T04:17:51.170Z,13.07
2018-05-04T04:20:18.638Z,9.23
2018-05-04T04:22:47.125Z,8.70
2018-05-04T04:25:14.479Z,10.30
2018-05-04T04:27:42.875Z,10.07
2018-05-04T04:30:10.237Z,12.57
2018-05-04T04:32:41.232Z,9.20
2018-05-04T04:35:08.624Z,14.07
2018-05-04T04:37:38.018Z,13.63
2018-05-04T04:40:06.378Z,11.90
2018-05-04T04:42:33.758Z,12.40
2018-05-04T04:45:06.931Z,10.03
2018-05-04T04:47:35.113Z,9.30
2018-05-04T04:50:02.747Z,8.53
2018-05-04T04:52:31.171Z,9.27
2018-05-04T04:54:58.555Z,11.13
2018-05-04T04:57:26.913Z,8.30
2018-05-04T04:59:54.334Z,9.70
2018-05-04T05:02:21.694Z,8.30
2018-05-04T05:04:49.046Z,13.67
2018-05-04T05:07:16.435Z,14.30
2018-05-04T05:09:45.831Z,9.67
2018-05-04T05:12:14.179Z,12.27
2018-05-04T05:14:41.544Z,9.97
2018-05-04T05:17:09.931Z,9.60
2018-05-04T05:19:38.279Z,12.07
2018-05-04T05:22:05.707Z,13.60
2018-05-04T05:24:34.091Z,10.10
2018-05-04T05:27:02.428Z,10.00
2018-05-04T05:29:29.948Z,9.83
2018-05-04T05:31:57.349Z,12.60
2018-05-04T05:34:24.741Z,13.63
2018-05-04T05:36:52.169Z,16.90
2018-05-04T05:39:19.556Z,6.97
2018-05-04T05:41:46.947Z,9.30
2018-05-04T05:44:14.355Z,11.43
2018-05-04T05:46:45.719Z,10.57
2018-05-04T05:49:13.142Z,11.50
2018-05-04T05:51:41.472Z,9.17
2018-05-04T05:54:08.884Z,9.70
2018-05-04T05:56:36.274Z,10.00
2018-05-04T05:59:04.695Z,19.07
2018-05-04T06:01:32.119Z,7.83
2018-05-04T06:04:00.568Z,11.37
2018-05-04T06:06:29.878Z,16.87
2018-05-04T06:08:58.163Z,15.87
2018-05-04T06:11:25.583Z,8.43
2018-05-04T06:13:53.013Z,12.30
2018-05-04T06:16:22.448Z,17.10
2018-05-04T06:18:49.790Z,12.73
2018-05-04T06:21:22.335Z,13.33
2018-05-04T06:23:49.701Z,12.87
2018-05-04T06:26:18.700Z,16.77
2018-05-04T06:28:46.084Z,9.27
2018-05-04T06:31:13.500Z,7.10
2018-05-04T06:33:40.945Z,8.40
2018-05-04T06:36:08.278Z,9.67
2018-05-04T06:38:39.355Z,10.37
2018-05-04T06:41:07.690Z,8.90
2018-05-04T06:43:36.037Z,8.10
2018-05-04T06:46:04.360Z,12.93
2018-05-04T06:48:31.720Z,12.47
2018-05-04T06:50:59.146Z,10.57
2018-05-04T06:53:27.500Z,10.73
2018-05-04T06:55:54.856Z,11.53
2018-05-04T06:58:25.587Z,14.67
2018-05-04T07:00:56.179Z,11.10
2018-05-04T07:03:23.560Z,9.03
2018-05-04T07:05:50.964Z,7.43
2018-05-04T07:08:19.232Z,8.70
2018-05-04T07:10:46.635Z,10.07
2018-05-04T07:13:13.992Z,9.00
2018-05-04T07:15:42.400Z,4.43
2018-05-04T07:18:09.760Z,9.33
2018-05-04T07:20:38.285Z,5.83
2018-05-04T07:23:05.828Z,3.60
2018-05-04T07:25:33.195Z,6.50
2018-05-04T07:28:01.620Z,7.90
2018-05-04T07:30:29.960Z,8.37
2018-05-04T07:32:57.335Z,6.67
2018-05-04T07:35:24.694Z,7.53
2018-05-04T07:37:53.267Z,3.80
2018-05-04T07:40:20.648Z,9.00
2018-05-04T07:42:48.981Z,3.80
2018-05-04T07:45:16.329Z,8.83
2018-05-04T07:47:43.743Z,5.97
2018-05-04T07:50:13.074Z,6.00
2018-05-04T07:52:40.459Z,5.43
2018-05-04T07:55:07.905Z,8.53
2018-05-04T07:57:36.294Z,4.63
2018-05-04T08:00:03.666Z,8.20
2018-05-04T08:02:31.124Z,6.00
2018-05-04T08:04:58.510Z,3.63
2018-05-04T08:07:25.883Z,9.73
2018-05-04T08:09:54.194Z,9.37
2018-05-04T08:12:22.556Z,5.03
2018-05-04T08:14:49.935Z,5.77
2018-05-04T08:17:18.350Z,5.53
2018-05-04T08:19:45.760Z,8.20
2018-05-04T08:22:14.146Z,6.77
2018-05-04T08:24:43.449Z,9.47
2018-05-04T08:27:10.831Z,8.83
2018-05-04T08:29:39.185Z,3.73
2018-05-04T08:32:06.601Z,5.10
2018-05-04T08:34:34.009Z,6.30
2018-05-04T08:37:01.466Z,3.23
2018-05-04T08:39:28.832Z,3.90
2018-05-04T08:41:56.232Z,3.90
2018-05-04T08:44:23.580Z,5.97
2018-05-04T08:46:51.027Z,6.87
2018-05-04T08:49:18.398Z,4.90
2018-05-04T08:51:45.771Z,4.70
2018-05-04T08:54:13.226Z,9.57
2018-05-04T08:56:40.601Z,7.47
2018-05-04T08:59:07.995Z,4.53
2018-05-04T09:01:38.781Z,5.27
2018-05-04T09:04:06.124Z,3.50
2018-05-04T09:06:33.545Z,3.43
2018-05-04T09:09:00.896Z,4.00
2018-05-04T09:11:28.308Z,3.50
2018-05-04T09:13:55.676Z,2.83
2018-05-04T09:16:23.096Z,9.13
2018-05-04T09:18:50.501Z,7.80
2018-05-04T09:21:17.887Z,4.33
2018-05-04T09:23:45.399Z,4.77
2018-05-04T09:26:12.779Z,4.57
2018-05-04T09:28:40.155Z,8.37
2018-05-04T09:31:07.599Z,2.20
2018-05-04T09:33:34.944Z,5.80
2018-05-04T09:36:02.290Z,4.13
2018-05-04T09:38:29.711Z,2.33
2018-05-04T09:40:57.193Z,8.80
2018-05-04T09:43:24.623Z,2.83
2018-05-04T09:45:52.042Z,3.57
2018-05-04T09:48:19.415Z,2.50
2018-05-04T09:50:46.797Z,4.00
2018-05-04T09:53:14.243Z,6.93
2018-05-04T09:55:41.606Z,5.30
2018-05-04T09:58:08.977Z,8.73
2018-05-04T10:00:36.382Z,2.00
2018-05-04T10:03:03.779Z,1.97
2018-05-04T10:05:31.176Z,2.70
2018-05-04T10:07:58.572Z,4.60
2018-05-04T10:10:25.943Z,1.97
2018-05-04T10:12:53.348Z,3.00
2018-05-04T10:15:20.753Z,3.10
2018-05-04T10:17:48.141Z,2.90
2018-05-04T10:20:15.535Z,2.17
2018-05-04T10:22:42.984Z,2.00
2018-05-04T10:25:10.325Z,2.73
2018-05-04T10:27:37.698Z,3.73
2018-05-04T10:30:05.026Z,9.47
2018-05-04T10:32:32.372Z,2.23
2018-05-04T10:34:59.784Z,2.90
2018-05-04T10:37:27.131Z,1.60
2018-05-04T10:39:54.561Z,3.70
2018-05-04T10:42:21.894Z,2.40
2018-05-04T10:44:49.289Z,1.73
2018-05-04T10:47:16.728Z,4.60
2018-05-04T10:49:44.108Z,2.80
2018-05-04T10:52:11.521Z,2.70
2018-05-04T10:54:38.902Z,3.60
2018-05-04T10:57:06.274Z,4.70
2018-05-04T10:59:33.654Z,2.20
2018-05-04T11:02:01.030Z,3.77
2018-05-04T11:04:28.373Z,7.47
2018-05-04T11:06:55.840Z,4.77
2018-05-04T11:09:23.344Z,3.67
2018-05-04T11:11:50.770Z,3.20
2018-05-04T11:14:18.148Z,3.37
2018-05-04T11:16:45.491Z,5.03
2018-05-04T11:19:12.900Z,3.43
2018-05-04T11:21:40.451Z,3.00
2018-05-04T11:24:09.240Z,8.13
2018-05-04T11:26:36.766Z,3.20
2018-05-04T11:29:04.135Z,3.50
2018-05-04T11:31:31.491Z,3.63
2018-05-04T11:33:58.859Z,10.90
2018-05-04T11:36:26.298Z,2.87
2018-05-04T11:38:53.683Z,3.83
2018-05-04T11:41:22.024Z,5.77
2018-05-04T11:43:49.373Z,2.47
2018-05-04T11:46:16.750Z,2.93
2018-05-04T11:48:44.163Z,4.37
2018-05-04T11:51:11.559Z,4.73
2018-05-04T11:53:39.567Z,3.23
2018-05-04T11:56:07.033Z,4.13
2018-05-04T11:58:34.493Z,4.37
2018-05-04T12:01:01.853Z,2.87
2018-05-04T12:03:29.244Z,4.93
2018-05-04T12:05:56.632Z,4.23
2018-05-04T12:08:24.052Z,2.60
2018-05-04T12:10:51.471Z,4.33
2018-05-04T12:13:18.917Z,2.87
2018-05-04T12:15:46.354Z,2.87
2018-05-04T12:18:13.754Z,3.93
2018-05-04T12:20:41.163Z,6.77
2018-05-04T12:23:08.549Z,2.73
2018-05-04T12:25:35.945Z,2.20
2018-05-04T12:28:03.344Z,5.30
2018-05-04T12:30:30.779Z,5.60
2018-05-04T12:32:58.139Z,3.60
2018-05-04T12:35:25.538Z,3.80
2018-05-04T12:37:52.944Z,4.80
2018-05-04T12:40:20.343Z,4.60
2018-05-04T12:42:47.682Z,4.63
2018-05-04T12:45:15.087Z,5.07
2018-05-04T12:47:42.455Z,3.40
2018-05-04T12:50:10.766Z,4.17
2018-05-04T12:52:38.158Z,5.83
2018-05-04T12:55:05.491Z,4.90
2018-05-04T12:57:32.896Z,5.70
2018-05-04T13:00:01.176Z,4.37
2018-05-04T13:02:29.579Z,3.17
2018-05-04T13:04:56.956Z,3.87
2018-05-04T13:07:24.378Z,2.40
2018-05-04T13:09:51.716Z,4.70
2018-05-04T13:12:19.995Z,4.03
2018-05-04T13:14:47.442Z,4.57
2018-05-04T13:17:15.875Z,2.33
2018-05-04T13:19:43.323Z,3.70
2018-05-04T13:22:10.675Z,2.67
2018-05-04T13:24:38.087Z,2.30
2018-05-04T13:27:06.399Z,2.70
2018-05-04T13:29:33.824Z,5.17
2018-05-04T13:32:01.175Z,2.77
2018-05-04T13:34:28.597Z,4.10
2018-05-04T13:36:55.992Z,3.10
2018-05-04T13:39:23.398Z,3.17
2018-05-04T13:41:50.751Z,2.80
2018-05-04T13:44:18.090Z,3.30
2018-05-04T13:46:45.446Z,3.57
2018-05-04T13:49:12.810Z,2.90
2018-05-04T13:51:40.237Z,3.57
2018-05-04T13:54:08.747Z,4.20
2018-05-04T13:56:36.245Z,4.43
2018-05-04T13:59:03.627Z,4.83
2018-05-04T14:01:31.065Z,1.67
2018-05-04T14:03:58.544Z,2.83
2018-05-04T14:06:25.855Z,3.80
2018-05-04T14:08:53.263Z,2.60
2018-05-04T14:11:20.654Z,1.97
2018-05-04T14:13:48.021Z,2.53
2018-05-04T14:16:15.367Z,1.80
2018-05-04T14:18:42.779Z,3.40
2018-05-04T14:21:10.155Z,2.57
2018-05-04T14:23:37.595Z,6.83
2018-05-04T14:26:05.052Z,2.67
2018-05-04T14:28:32.396Z,2.50
2018-05-04T14:30:59.796Z,3.40
2018-05-04T14:33:27.160Z,3.20
2018-05-04T14:35:54.543Z,2.90
2018-05-04T14:38:21.897Z,2.40
2018-05-04T14:40:49.340Z,1.87
2018-05-04T14:43:16.868Z,2.20
2018-05-04T14:45:45.384Z,4.00
2018-05-04T14:48:12.827Z,1.60
2018-05-04T14:50:40.194Z,6.03
2018-05-04T14:53:07.615Z,1.63
2018-05-04T14:55:35.013Z,1.97
2018-05-04T14:58:02.423Z,3.83
2018-05-04T15:00:29.888Z,3.17
2018-05-04T15:02:57.306Z,2.23
2018-05-04T15:05:24.768Z,2.70
2018-05-04T15:07:52.148Z,2.43
2018-05-04T15:10:19.526Z,2.50
2018-05-04T15:12:46.962Z,1.63
2018-05-04T15:15:14.364Z,1.62
2018-05-04T15:17:41.731Z,3.30
2018-05-04T15:20:09.172Z,2.47
2018-05-04T15:22:36.576Z,3.45
2018-05-04T15:25:04.062Z,1.80
2018-05-04T15:27:31.491Z,1.60
2018-05-04T15:29:58.880Z,2.90
2018-05-04T15:32:26.223Z,2.28
2018-05-04T15:34:53.618Z,1.50
2018-05-04T15:37:20.962Z,1.80
2018-05-04T15:39:48.331Z,2.53
2018-05-04T15:42:15.734Z,1.60
2018-05-04T15:44:43.127Z,1.60
2018-05-04T15:47:10.556Z,3.72
2018-05-04T15:49:37.911Z,1.80
2018-05-04T15:52:06.112Z,1.77
2018-05-04T15:54:33.580Z,1.87
2018-05-04T15:57:00.987Z,4.32
2018-05-04T15:59:28.367Z,3.47
2018-05-04T16:01:55.751Z,3.85
2018-05-04T16:04:23.194Z,5.03
2018-05-04T16:06:50.540Z,2.75
2018-05-04T16:09:17.907Z,3.87
2018-05-04T16:11:45.255Z,5.22
2018-05-04T16:14:12.663Z,2.53
2018-05-04T16:16:40.093Z,2.67
2018-05-04T16:19:07.468Z,4.25
2018-05-04T16:21:34.889Z,1.98
2018-05-04T16:24:02.268Z,3.40
2018-05-04T16:26:29.643Z,2.90
2018-05-04T16:28:56.983Z,3.72
2018-05-04T16:31:24.404Z,2.20
2018-05-04T16:33:51.775Z,2.75
2018-05-04T16:36:19.153Z,3.03
2018-05-04T16:38:46.622Z,1.80
2018-05-04T16:41:14.002Z,2.40
2018-05-04T16:43:41.366Z,3.12
2018-05-04T16:46:08.735Z,3.55
2018-05-04T16:48:41.799Z,3.45
2018-05-04T16:51:09.171Z,2.13
2018-05-04T16:53:36.535Z,3.13
2018-05-04T16:56:03.879Z,2.33
2018-05-04T16:58:31.277Z,4.40
2018-05-04T17:00:58.668Z,2.10
2018-05-04T17:03:26.018Z,1.93
2018-05-04T17:05:53.425Z,1.93
2018-05-04T17:08:20.815Z,3.30
2018-05-04T17:10:48.199Z,4.67
2018-05-04T17:13:15.580Z,3.70
2018-05-04T17:15:43.003Z,5.60
2018-05-04T17:18:10.347Z,4.90
2018-05-04T17:20:37.787Z,3.63
2018-05-04T17:23:05.225Z,2.23
2018-05-04T17:25:32.550Z,6.07
2018-05-04T17:27:59.991Z,2.40
2018-05-04T17:30:27.368Z,4.20
2018-05-04T17:32:54.784Z,2.73
2018-05-04T17:35:22.185Z,11.27
2018-05-04T17:37:49.566Z,3.37
2018-05-04T17:40:17.050Z,2.83
2018-05-04T17:42:44.375Z,3.67
2018-05-04T17:45:11.745Z,3.30
2018-05-04T17:47:39.123Z,2.53
2018-05-04T17:50:06.520Z,3.73
2018-05-04T17:52:33.928Z,3.00
2018-05-04T17:55:01.352Z,2.70
2018-05-04T17:57:28.708Z,3.87
2018-05-04T17:59:56.079Z,2.03
2018-05-04T18:02:23.511Z,1.93
2018-05-04T18:04:50.880Z,1.97
2018-05-04T18:07:18.271Z,3.93
2018-05-04T18:09:45.630Z,4.13
2018-05-04T18:12:13.035Z,2.80
2018-05-04T18:14:40.378Z,4.70
2018-05-04T18:17:07.741Z,2.80
2018-05-04T18:19:35.117Z,6.30
2018-05-04T18:22:02.522Z,2.90
2018-05-04T18:24:29.933Z,4.73
2018-05-04T18:26:57.312Z,4.47
2018-05-04T18:29:24.703Z,4.13
2018-05-04T18:31:52.069Z,5.73
2018-05-04T18:34:19.474Z,3.60
2018-05-04T18:36:46.904Z,3.60
2018-05-04T18:39:14.274Z,7.30
2018-05-04T18:41:41.676Z,4.90
2018-05-04T18:44:09.059Z,3.73
2018-05-04T18:46:36.528Z,7.70
2018-05-04T18:49:03.932Z,4.53
2018-05-04T18:51:31.316Z,5.47
2018-05-04T18:53:58.654Z,4.43
2018-05-04T18:56:26.060Z,7.40
2018-05-04T18:58:53.403Z,9.27
2018-05-04T19:01:20.743Z,6.97
2018-05-04T19:03:48.107Z,6.23
2018-05-04T19:06:15.595Z,5.00
2018-05-04T19:08:43.156Z,7.00
2018-05-04T19:11:10.594Z,8.90
2018-05-04T19:13:38.204Z,5.60
2018-05-04T19:16:05.603Z,7.70
2018-05-04T19:18:33.031Z,9.27
2018-05-04T19:21:00.408Z,9.47
2018-05-04T19:23:27.826Z,8.17
2018-05-04T19:25:55.251Z,7.03
2018-05-04T19:28:22.712Z,8.40
2018-05-04T19:30:50.185Z,14.77
2018-05-04T19:33:17.617Z,16.10
2018-05-04T19:35:45.273Z,5.37
2018-05-04T19:38:12.615Z,6.30
2018-05-04T19:40:40.128Z,6.60
2018-05-04T19:43:07.494Z,4.13
2018-05-04T19:45:34.931Z,9.17
2018-05-04T19:48:02.322Z,8.80
2018-05-04T19:50:29.690Z,5.27
2018-05-04T19:52:57.179Z,7.47
2018-05-04T19:55:24.553Z,7.77
2018-05-04T19:57:51.907Z,6.63
2018-05-04T20:00:19.643Z,6.13
2018-05-04T20:02:47.103Z,7.80
2018-05-04T20:05:14.482Z,7.47
2018-05-04T20:07:41.835Z,7.23
2018-05-04T20:10:09.231Z,5.80
2018-05-04T20:12:36.725Z,6.53
2018-05-04T20:15:04.143Z,7.20
2018-05-04T20:17:31.621Z,8.07
2018-05-04T20:19:59.025Z,8.33
2018-05-04T20:22:26.427Z,10.17
2018-05-04T20:24:53.915Z,10.67
2018-05-04T20:27:21.392Z,9.13
2018-05-04T20:29:48.739Z,11.90
2018-05-04T20:32:16.119Z,7.10
2018-05-04T20:34:43.688Z,17.30
2018-05-04T20:37:11.106Z,8.63
2018-05-04T20:39:38.527Z,9.23
2018-05-04T20:42:06.095Z,9.17
2018-05-04T20:44:33.550Z,6.90
2018-05-04T20:47:00.954Z,8.70
2018-05-04T20:49:28.426Z,8.33
2018-05-04T20:51:55.894Z,5.47
2018-05-04T20:54:23.468Z,5.63
2018-05-04T20:56:50.803Z,7.70
2018-05-04T20:59:18.186Z,9.57
2018-05-04T21:01:45.562Z,10.23
2018-05-04T21:04:13.835Z,8.70
2018-05-04T21:06:41.214Z,7.43
2018-05-04T21:09:08.573Z,8.23
2018-05-04T21:11:35.943Z,6.37
2018-05-04T21:14:03.438Z,10.47
2018-05-04T21:16:30.843Z,6.50
2018-05-04T21:18:58.288Z,6.70
2018-05-04T21:21:25.630Z,10.00
2018-05-04T21:23:53.018Z,5.63
2018-05-04T21:26:20.345Z,8.27
2018-05-04T21:28:47.801Z,9.10
2018-05-04T21:31:15.334Z,6.43
2018-05-04T21:33:42.684Z,11.93
2018-05-04T21:36:10.090Z,5.80
2018-05-04T21:38:37.515Z,5.87
2018-05-04T21:41:04.923Z,9.53
2018-05-04T21:43:32.340Z,7.00
2018-05-04T21:45:59.678Z,8.27
2018-05-04T21:48:27.067Z,6.20
2018-05-04T21:50:54.439Z,8.90
2018-05-04T21:53:21.798Z,9.10
2018-05-04T21:55:49.217Z,11.07
2018-05-04T21:58:16.571Z,13.43
2018-05-04T22:00:44.032Z,10.40
2018-05-04T22:03:11.428Z,10.60
2018-05-04T22:05:38.808Z,10.90
2018-05-04T22:08:06.266Z,9.03
2018-05-04T22:10:33.613Z,6.07
2018-05-04T22:13:00.979Z,7.70
2018-05-04T22:15:28.361Z,9.50
2018-05-04T22:17:55.735Z,8.97
2018-05-04T22:20:23.168Z,8.53
2018-05-04T22:22:50.520Z,10.10
2018-05-04T22:25:17.927Z,8.20
2018-05-04T22:27:45.291Z,9.37
2018-05-04T22:30:12.640Z,8.33
2018-05-04T22:32:40.007Z,9.33
2018-05-04T22:35:07.383Z,7.20
2018-05-04T22:37:34.792Z,10.87
2018-05-04T22:40:02.227Z,9.33
2018-05-04T22:42:29.595Z,10.83
2018-05-04T22:44:56.994Z,12.40
2018-05-04T22:47:24.335Z,5.53
2018-05-04T22:49:51.730Z,9.87
2018-05-04T22:52:19.103Z,11.90
2018-05-04T22:54:46.522Z,9.93
2018-05-04T22:57:13.864Z,6.13
2018-05-04T22:59:41.217Z,10.87
2018-05-04T23:02:08.616Z,6.30
2018-05-04T23:04:35.966Z,12.33
2018-05-04T23:07:03.344Z,8.93
2018-05-04T23:09:30.685Z,8.30
2018-05-04T23:11:58.101Z,8.70
2018-05-04T23:14:25.560Z,6.40
2018-05-04T23:16:52.938Z,7.00
2018-05-04T23:19:20.322Z,8.27
2018-05-04T23:21:47.706Z,10.70
2018-05-04T23:24:15.059Z,8.20
2018-05-04T23:26:42.428Z,7.43
2018-05-04T23:29:09.843Z,13.33
2018-05-04T23:31:37.258Z,7.27
2018-05-04T23:34:04.679Z,5.93
2018-05-04T23:36:32.036Z,7.00
2018-05-04T23:38:59.515Z,11.07
2018-05-04T23:41:26.885Z,5.50
2018-05-04T23:43:54.328Z,11.40
2018-05-04T23:46:21.732Z,13.03
2018-05-04T23:48:49.099Z,6.03
2018-05-04T23:51:16.476Z,6.70
2018-05-04T23:53:43.818Z,9.77
2018-05-04T23:56:11.191Z,7.30
2018-05-04T23:58:39.362Z,7.90
